Time;durP1;ratioP1;P1;durP2;ratioP2;P2;SDS_P1;SDS_P2;PMS_P1;PMS_P2;Temp;Humidity;BMP_temperature;BMP_pressure;BME280_temperature;BME280_humidity;BME280_pressure;Samples;Min_cycle;Max_cycle;Signal;HPM_P1;HPM_P2
2021/08/16 00:02:46;;;;;;;8.53;5.87;;;;;;;20.90;91.79;94834.56;10450773;28;20029;-88
2021/08/16 00:07:46;;;;;;;8.23;6.13;;;;;;;20.83;88.86;94839.78;10452418;28;20274;-88
2021/08/16 00:12:47;;;;;;;7.70;5.68;;;;;;;20.79;87.10;94833.38;10452419;28;20079;-88
2021/08/16 00:17:49;;;;;;;8.00;5.35;;;;;;;20.80;83.91;94829.53;10453457;28;20100;-88
2021/08/16 00:22:49;;;;;;;6.60;5.23;;;;;;;20.85;80.73;94829.31;10450899;28;20036;-88
2021/08/16 00:27:50;;;;;;;12.45;4.90;;;;;;;20.80;79.31;94832.25;10450913;28;21037;-88
2021/08/16 00:32:50;;;;;;;13.00;5.15;;;;;;;20.80;77.92;94821.34;10443051;28;20485;-88
2021/08/16 00:37:51;;;;;;;8.20;5.13;;;;;;;20.85;75.33;94826.59;10410266;28;20084;-88
2021/08/16 00:42:51;;;;;;;6.13;4.38;;;;;;;20.86;73.50;94821.91;10411335;28;20144;-88
2021/08/16 00:47:52;;;;;;;9.05;4.60;;;;;;;20.84;73.52;94822.25;10417669;28;20030;-88
2021/08/16 00:52:52;;;;;;;6.20;4.68;;;;;;;20.77;73.42;94817.34;10411750;28;20025;-88
2021/08/16 00:57:54;;;;;;;9.98;4.47;;;;;;;20.73;72.96;94821.09;10410082;28;20087;-89
2021/08/16 01:02:54;;;;;;;8.38;3.85;;;;;;;20.63;73.98;94825.00;10409255;28;20029;-88
2021/08/16 01:07:55;;;;;;;5.88;4.70;;;;;;;20.53;75.86;94833.63;10409047;28;20029;-88
2021/08/16 01:12:57;;;;;;;8.07;4.30;;;;;;;20.39;80.04;94836.63;10410774;28;20053;-88
2021/08/16 01:17:57;;;;;;;7.82;4.70;;;;;;;20.32;80.74;94840.66;10410081;28;20647;-88
2021/08/16 01:22:59;;;;;;;6.23;4.73;;;;;;;20.10;82.79;94830.06;10410135;28;20084;-88
2021/08/16 01:27:59;;;;;;;11.57;4.90;;;;;;;19.94;82.53;94827.94;10412175;28;20264;-87
2021/08/16 01:33:00;;;;;;;6.60;4.50;;;;;;;19.90;82.88;94828.91;10413489;28;20089;-88
2021/08/16 01:38:00;;;;;;;6.47;4.63;;;;;;;19.87;82.51;94824.09;10418479;28;20300;-88
2021/08/16 01:43:01;;;;;;;12.57;5.03;;;;;;;19.85;83.35;94821.72;10417183;28;20048;-88
2021/08/16 01:48:01;;;;;;;5.55;4.10;;;;;;;19.78;83.05;94815.97;10417524;28;20325;-88
2021/08/16 01:53:03;;;;;;;5.63;3.88;;;;;;;19.81;82.37;94818.06;10415545;28;20069;-88
2021/08/16 01:58:04;;;;;;;5.72;4.63;;;;;;;19.80;82.18;94814.53;10418920;28;20025;-87
2021/08/16 02:03:06;;;;;;;6.50;4.63;;;;;;;19.82;82.12;94822.38;10423793;28;20064;-88
2021/08/16 02:08:06;;;;;;;6.15;3.92;;;;;;;19.79;81.36;94814.84;10416790;28;20120;-88
2021/08/16 02:13:11;;;;;;;7.90;4.53;;;;;;;19.74;82.72;94815.00;10416374;28;20548;-88
2021/08/16 02:18:11;;;;;;;11.52;4.75;;;;;;;19.69;83.78;94817.91;10416432;28;20124;-88
2021/08/16 02:23:11;;;;;;;8.10;3.80;;;;;;;19.71;85.66;94821.91;10414586;28;20476;-87
2021/08/16 02:28:16;;;;;;;7.40;4.72;;;;;;;19.68;85.84;94824.53;10414739;28;20099;-88
2021/08/16 02:33:29;;;;;;;6.22;4.53;;;;;;;19.55;84.85;94832.59;10415042;28;20026;-87
2021/08/16 02:38:30;;;;;;;8.10;4.95;;;;;;;19.50;82.65;94827.31;10414030;28;20076;-87
2021/08/16 02:43:59;;;;;;;6.90;4.05;;;;;;;19.44;84.29;94825.91;10414149;28;20029;-87
2021/08/16 02:49:00;;;;;;;5.97;4.10;;;;;;;19.36;84.33;94830.28;10414532;28;20029;-88
2021/08/16 02:54:00;;;;;;;6.40;4.32;;;;;;;19.37;84.93;94820.16;10414052;28;20476;-89
2021/08/16 02:59:01;;;;;;;5.87;4.30;;;;;;;19.32;85.31;94826.59;10414350;28;20078;-89
2021/08/16 03:04:02;;;;;;;9.82;5.30;;;;;;;19.27;86.34;94818.59;10413536;28;20147;-89
2021/08/16 03:09:02;;;;;;;7.15;4.93;;;;;;;19.21;87.51;94822.63;10414508;28;20036;-87
2021/08/16 03:14:06;;;;;;;9.00;5.43;;;;;;;19.19;88.01;94812.06;10414569;28;20028;-89
2021/08/16 03:19:07;;;;;;;8.32;5.50;;;;;;;19.11;88.54;94815.63;10413186;28;20288;-89
2021/08/16 03:24:07;;;;;;;6.30;4.93;;;;;;;19.11;88.57;94812.88;10414005;28;20400;-88
2021/08/16 03:29:08;;;;;;;7.40;5.05;;;;;;;19.24;89.22;94813.81;10412823;28;20338;-88
2021/08/16 03:34:10;;;;;;;10.40;4.57;;;;;;;19.19;87.00;94817.50;10412405;28;20084;-89
2021/08/16 03:39:10;;;;;;;7.53;5.07;;;;;;;19.12;88.34;94814.50;10412864;28;20033;-88
2021/08/16 03:44:11;;;;;;;9.23;5.65;;;;;;;19.12;88.77;94807.09;10412270;28;20044;-88
2021/08/16 03:49:12;;;;;;;8.07;5.07;;;;;;;19.16;89.77;94826.34;10414325;28;20029;-88
2021/08/16 03:54:12;;;;;;;9.32;5.72;;;;;;;19.12;89.33;94828.91;10413800;28;20033;-92
2021/08/16 03:59:12;;;;;;;13.90;5.00;;;;;;;19.09;90.52;94834.22;10412115;28;20128;-88
2021/08/16 04:04:13;;;;;;;7.47;5.30;;;;;;;19.00;92.68;94833.44;10410825;28;20025;-88
2021/08/16 04:09:13;;;;;;;7.70;4.68;;;;;;;18.94;95.11;94840.97;10412125;28;20786;-89
2021/08/16 04:14:14;;;;;;;10.67;5.03;;;;;;;19.02;96.61;94834.72;10410847;28;20021;-87
2021/08/16 04:19:14;;;;;;;8.60;5.93;;;;;;;18.87;97.49;94843.38;10412253;28;20295;-88
2021/08/16 04:24:44;;;;;;;13.93;6.72;;;;;;;18.84;99.40;94850.25;10410841;28;20276;-88
2021/08/16 04:29:44;;;;;;;12.15;7.40;;;;;;;18.82;100.00;94836.16;10412788;28;20079;-88
2021/08/16 04:34:44;;;;;;;19.65;7.07;;;;;;;18.77;100.00;94842.56;10410525;28;20099;-88
2021/08/16 04:39:45;;;;;;;16.50;7.55;;;;;;;18.85;100.00;94845.59;10413654;28;20032;-91
2021/08/16 04:44:46;;;;;;;19.57;8.60;;;;;;;18.81;100.00;94840.03;10418670;28;20079;-91
2021/08/16 04:49:46;;;;;;;12.75;7.85;;;;;;;18.95;100.00;94843.38;10415910;28;20477;-92
2021/08/16 04:54:47;;;;;;;12.95;8.88;;;;;;;19.10;100.00;94844.78;10416759;28;20033;-92
2021/08/16 04:59:47;;;;;;;16.85;8.88;;;;;;;19.17;100.00;94844.28;10413325;28;20382;-92
2021/08/16 05:04:53;;;;;;;17.20;8.67;;;;;;;19.68;100.00;94852.59;10412031;28;20017;-91
2021/08/16 05:09:53;;;;;;;25.40;9.25;;;;;;;20.18;99.68;94855.69;10416330;28;20403;-91
2021/08/16 05:14:54;;;;;;;14.93;8.60;;;;;;;20.78;95.75;94850.94;10418878;28;20026;-90
2021/08/16 05:19:55;;;;;;;15.30;7.28;;;;;;;21.42;88.42;94859.72;10419290;28;20029;-91
2021/08/16 05:24:56;;;;;;;13.02;8.32;;;;;;;21.71;83.54;94857.97;10419644;28;20030;-93
2021/08/16 05:29:56;;;;;;;20.60;7.97;;;;;;;22.44;80.86;94851.66;10418767;28;20026;-91
2021/08/16 05:34:57;;;;;;;10.23;7.13;;;;;;;23.35;71.37;94857.72;10418127;28;20273;-91
2021/08/16 05:39:57;;;;;;;14.43;7.57;;;;;;;23.53;64.99;94849.94;10418791;28;20560;-91
2021/08/16 05:44:59;;;;;;;9.90;6.60;;;;;;;24.45;60.54;94846.19;10418649;28;20507;-92
2021/08/16 05:50:00;;;;;;;14.90;6.90;;;;;;;25.15;57.04;94848.03;10420153;28;20562;-91
2021/08/16 05:55:01;;;;;;;15.20;7.53;;;;;;;25.76;51.41;94848.34;10433149;28;20033;-91
2021/08/16 06:00:03;;;;;;;10.38;6.80;;;;;;;26.83;48.27;94844.78;10431760;28;20453;-93
2021/08/16 06:05:05;;;;;;;12.10;6.00;;;;;;;28.21;44.00;94840.22;10418971;28;20021;-92
2021/08/16 06:10:06;;;;;;;11.27;6.15;;;;;;;28.81;41.85;94840.97;10417551;28;20048;-91
2021/08/16 06:15:08;;;;;;;10.65;5.75;;;;;;;28.94;40.66;94835.88;10417658;28;20062;-93
2021/08/16 06:20:10;;;;;;;14.38;7.07;;;;;;;29.29;40.29;94838.00;10417007;28;20033;-92
2021/08/16 06:25:11;;;;;;;16.70;6.40;;;;;;;29.93;38.82;94844.84;10415091;28;20029;-92
2021/08/16 06:30:12;;;;;;;7.25;5.10;;;;;;;29.74;38.14;94842.44;10417364;28;20048;-93
2021/08/16 06:35:17;;;;;;;12.25;5.25;;;;;;;29.79;38.33;94845.59;10416032;28;20471;-92
2021/08/16 06:40:17;;;;;;;9.95;5.60;;;;;;;30.97;36.33;94843.84;10417337;28;20033;-92
2021/08/16 06:45:18;;;;;;;15.50;5.45;;;;;;;31.96;35.24;94842.09;10415113;28;20506;-87
2021/08/16 06:50:18;;;;;;;14.63;5.97;;;;;;;33.01;33.53;94839.09;10414722;28;20108;-88
2021/08/16 06:55:23;;;;;;;8.45;4.60;;;;;;;32.96;32.49;94839.56;10415105;28;20279;-89
2021/08/16 07:00:41;;;;;;;11.73;4.53;;;;;;;32.91;32.43;94840.03;10415483;28;20057;-89
2021/08/16 07:05:43;;;;;;;8.20;4.70;;;;;;;32.69;32.28;94835.47;10415951;28;20057;-89
2021/08/16 07:10:43;;;;;;;9.15;4.85;;;;;;;33.75;31.30;94846.84;10413729;28;20029;-87
2021/08/16 07:15:44;;;;;;;10.47;4.47;;;;;;;34.02;31.70;94835.72;10414419;28;20435;-88
2021/08/16 07:20:44;;;;;;;14.18;4.85;;;;;;;34.86;30.23;94843.41;10414329;28;20033;-89
2021/08/16 07:25:45;;;;;;;8.47;4.47;;;;;;;35.96;28.66;94837.91;10412760;28;20170;-89
2021/08/16 07:30:45;;;;;;;7.73;4.43;;;;;;;37.09;27.76;94834.56;10414602;28;20272;-93
2021/08/16 07:35:46;;;;;;;8.80;3.90;;;;;;;38.11;26.30;94830.28;10415051;28;20049;-93
2021/08/16 07:40:48;;;;;;;9.43;4.30;;;;;;;38.54;25.48;94830.88;10417734;28;20033;-92
2021/08/16 07:45:49;;;;;;;9.65;4.30;;;;;;;38.82;24.80;94829.09;10417186;28;20342;-93
2021/08/16 07:50:50;;;;;;;17.58;5.10;;;;;;;38.36;25.39;94831.50;10416451;28;20025;-93
2021/08/16 07:55:50;;;;;;;14.07;4.47;;;;;;;37.42;25.67;94821.19;10419965;28;20028;-93
2021/08/16 08:00:51;;;;;;;6.37;3.63;;;;;;;39.25;24.01;94816.28;10414799;28;20025;-93
2021/08/16 08:05:51;;;;;;;11.50;4.10;;;;;;;39.05;24.40;94818.66;10439178;28;20382;-93
2021/08/16 08:10:51;;;;;;;8.73;3.83;;;;;;;40.07;22.93;94810.75;10414182;28;20762;-93
2021/08/16 08:15:52;;;;;;;4.73;3.60;;;;;;;39.90;22.69;94811.00;10414087;28;20025;-93
2021/08/16 08:20:52;;;;;;;9.67;3.83;;;;;;;41.06;22.17;94801.28;10414757;28;20018;-93
2021/08/16 08:25:53;;;;;;;11.67;3.37;;;;;;;41.90;21.66;94803.88;10413095;28;20461;-94
2021/08/16 08:30:53;;;;;;;11.47;3.50;;;;;;;42.51;20.72;94798.03;10412973;28;20112;-94
2021/08/16 08:35:53;;;;;;;8.77;3.23;;;;;;;42.21;20.18;94789.44;10413857;28;20478;-93
2021/08/16 08:40:59;;;;;;;6.67;3.17;;;;;;;42.99;20.36;94789.44;10411698;28;20120;-93
2021/08/16 08:46:01;;;;;;;6.20;3.45;;;;;;;43.12;20.03;94777.09;10430908;28;20057;-93
2021/08/16 08:51:01;;;;;;;8.50;3.55;;;;;;;43.07;20.03;94777.78;10434567;28;20028;-93
2021/08/16 08:56:03;;;;;;;10.83;4.03;;;;;;;44.32;19.22;94769.97;10421513;28;20029;-91
2021/08/16 09:01:04;;;;;;;7.25;3.35;;;;;;;44.70;18.34;94765.28;10421083;28;20481;-94
2021/08/16 09:06:04;;;;;;;4.33;2.83;;;;;;;44.72;18.04;94759.88;10421565;28;20025;-93
2021/08/16 09:11:10;;;;;;;9.73;3.20;;;;;;;44.19;18.22;94758.19;10420554;28;20396;-94
2021/08/16 09:16:10;;;;;;;5.72;2.75;;;;;;;44.81;17.89;94750.44;10424522;28;20534;-93
2021/08/16 09:21:13;;;;;;;7.22;3.28;;;;;;;42.72;19.79;94741.66;10426239;28;20025;-88
2021/08/16 09:26:22;;;;;;;9.77;3.53;;;;;;;43.02;19.60;94746.06;10419848;28;20025;-88
2021/08/16 09:31:24;;;;;;;8.23;3.00;;;;;;;44.65;18.55;94731.94;10417678;28;20029;-88
2021/08/16 09:36:38;;;;;;;7.53;2.75;;;;;;;44.59;18.49;94736.78;10416891;28;20060;-89
2021/08/16 09:41:38;;;;;;;5.93;2.65;;;;;;;45.18;17.81;94732.00;10417243;28;20025;-89
2021/08/16 09:46:40;;;;;;;5.10;2.33;;;;;;;45.99;17.16;94712.19;10419929;28;20025;-89
2021/08/16 09:51:41;;;;;;;5.45;2.65;;;;;;;46.72;16.63;94715.34;10424932;28;20480;-88
2021/08/16 09:56:43;;;;;;;6.57;2.83;;;;;;;47.44;16.23;94703.00;10429331;28;20029;-89
2021/08/16 10:01:44;;;;;;;11.63;2.92;;;;;;;47.85;16.05;94705.28;10418674;28;20105;-89
2021/08/16 10:06:45;;;;;;;4.43;1.90;;;;;;;47.97;15.37;94689.69;10417840;28;20560;-93
2021/08/16 10:11:45;;;;;;;8.05;3.53;;;;;;;47.67;15.30;94689.50;10434336;28;20026;-92
2021/08/16 10:16:49;;;;;;;4.53;2.07;;;;;;;48.12;15.19;94680.03;10443111;28;20037;-92
2021/08/16 10:21:50;;;;;;;;;;;;;;;46.36;16.00;94674.38;10419013;28;20513;-92
2021/08/16 10:27:09;;;;;;;4.65;2.08;;;;;;;46.64;16.42;94657.41;10420635;28;19944;-92
2021/08/16 10:32:20;;;;;;;3.10;1.88;;;;;;;46.35;15.12;94667.94;10417544;28;20022;-92
2021/08/16 10:37:20;;;;;;;3.15;2.15;;;;;;;45.98;16.44;94654.59;10421216;28;20402;-91
2021/08/16 10:42:37;;;;;;;3.03;2.30;;;;;;;47.10;14.83;94648.91;10423659;28;20025;-93
2021/08/16 10:47:37;;;;;;;3.45;2.17;;;;;;;48.02;14.60;94642.53;10419520;28;20670;-93
2021/08/16 10:52:41;;;;;;;3.45;2.28;;;;;;;47.43;14.70;94636.75;10417075;28;20030;-92
2021/08/16 10:57:43;;;;;;;5.72;2.15;;;;;;;46.56;15.98;94631.53;10415498;28;20498;-88
2021/08/16 11:02:44;;;;;;;3.88;2.45;;;;;;;47.87;15.24;94625.78;10413455;28;20503;-88
2021/08/16 11:07:44;;;;;;;8.52;2.50;;;;;;;46.88;15.66;94619.16;10414273;28;20031;-89
2021/08/16 11:12:46;;;;;;;2.93;2.17;;;;;;;46.72;16.13;94607.28;10415212;28;20049;-88
2021/08/16 11:17:46;;;;;;;4.55;1.95;;;;;;;44.14;17.00;94611.59;10413358;28;20029;-88
2021/08/16 11:22:52;;;;;;;6.93;2.20;;;;;;;41.64;18.34;94606.75;10415159;28;20411;-92
2021/08/16 11:27:58;;;;;;;4.30;2.17;;;;;;;39.38;20.67;94590.47;10415382;28;20029;-92
2021/08/16 11:32:59;;;;;;;7.85;2.40;;;;;;;37.67;22.16;94600.88;10416127;28;20038;-90
2021/08/16 11:37:59;;;;;;;14.93;3.25;;;;;;;36.88;23.21;94589.47;10415130;28;20049;-92
2021/08/16 11:43:00;;;;;;;3.90;2.45;;;;;;;36.26;23.24;94577.28;10414088;28;20028;-92
2021/08/16 11:48:01;;;;;;;7.47;2.40;;;;;;;35.78;22.17;94570.66;10416233;28;20034;-92
2021/08/16 11:53:02;;;;;;;7.53;2.22;;;;;;;34.86;22.68;94575.34;10414384;28;20029;-89
2021/08/16 11:58:03;;;;;;;4.35;2.60;;;;;;;34.57;22.10;94568.41;10420856;28;20021;-88
2021/08/16 12:03:04;;;;;;;5.25;2.72;;;;;;;34.37;22.75;94559.31;10412102;28;20026;-89
2021/08/16 12:08:05;;;;;;;2.50;1.98;;;;;;;34.23;22.88;94552.00;10413020;28;20033;-88
2021/08/16 12:13:07;;;;;;;2.42;1.63;;;;;;;34.32;22.14;94554.25;10411747;28;20862;-87
2021/08/16 12:18:07;;;;;;;2.08;1.63;;;;;;;34.15;21.23;94545.03;10412054;28;20104;-89
2021/08/16 12:23:08;;;;;;;6.15;2.63;;;;;;;34.07;21.83;94536.81;10413054;28;20108;-88
2021/08/16 12:28:08;;;;;;;4.80;1.80;;;;;;;33.92;20.61;94532.75;10415024;28;20109;-89
2021/08/16 12:33:18;;;;;;;3.63;1.87;;;;;;;33.78;20.42;94531.03;10413189;28;20112;-88
2021/08/16 12:38:24;;;;;;;2.83;1.90;;;;;;;33.60;21.31;94522.22;10412282;28;20065;-88
2021/08/16 12:43:37;;;;;;;2.33;1.83;;;;;;;33.30;21.98;94518.44;10412071;28;20057;-87
2021/08/16 12:48:42;;;;;;;2.45;1.88;;;;;;;33.48;22.02;94513.31;10416340;28;20563;-88
2021/08/16 12:53:42;;;;;;;2.50;1.83;;;;;;;33.48;22.32;94499.38;10411359;28;20036;-88
2021/08/16 12:58:43;;;;;;;5.27;2.40;;;;;;;33.63;22.14;94499.06;10412097;28;20026;-88
2021/08/16 13:03:43;;;;;;;5.75;2.45;;;;;;;33.51;22.02;94486.59;10411442;28;20026;-88
2021/08/16 13:08:45;;;;;;;5.60;1.97;;;;;;;33.55;21.62;94493.66;10412117;28;20554;-89
2021/08/16 13:13:46;;;;;;;4.30;1.95;;;;;;;33.37;21.44;94485.66;10413894;28;20041;-93
2021/08/16 13:18:46;;;;;;;3.30;1.98;;;;;;;33.21;21.93;94479.94;10413313;28;20021;-93
2021/08/16 13:23:46;;;;;;;4.83;2.10;;;;;;;33.21;21.54;94491.91;10412259;28;20029;-93
2021/08/16 13:28:47;;;;;;;4.23;1.80;;;;;;;33.00;21.32;94483.94;10413734;28;20116;-91
2021/08/16 13:33:47;;;;;;;2.60;1.73;;;;;;;32.66;21.42;94479.31;10427602;28;20480;-92
2021/08/16 13:38:47;;;;;;;3.20;1.97;;;;;;;32.74;21.58;94466.88;10420210;28;20048;-91
2021/08/16 13:43:48;;;;;;;4.87;1.63;;;;;;;32.77;21.67;94463.25;10424836;28;20264;-92
2021/08/16 13:48:48;;;;;;;3.07;2.07;;;;;;;32.77;20.85;94463.25;10422016;28;20018;-92
2021/08/16 13:53:49;;;;;;;2.17;1.33;;;;;;;32.46;20.25;94456.97;10424743;28;20096;-92
2021/08/16 13:58:49;;;;;;;3.13;2.20;;;;;;;32.40;20.25;94456.66;10424833;28;20044;-91
2021/08/16 14:03:50;;;;;;;6.25;1.90;;;;;;;32.09;20.50;94462.28;10421218;28;20647;-92
2021/08/16 14:08:50;;;;;;;2.30;1.43;;;;;;;32.13;20.29;94440.00;10418020;28;20021;-87
2021/08/16 14:13:51;;;;;;;5.30;2.00;;;;;;;32.07;19.96;94445.25;10418766;28;20041;-92
2021/08/16 14:18:51;;;;;;;3.10;1.80;;;;;;;32.06;20.07;94432.53;10417540;28;20025;-91
2021/08/16 14:23:52;;;;;;;3.87;2.43;;;;;;;32.03;19.94;94438.94;10417208;28;20026;-93
2021/08/16 14:28:52;;;;;;;5.60;2.05;;;;;;;32.07;19.72;94427.75;10401142;28;20365;-91
2021/08/16 14:33:53;;;;;;;2.30;1.47;;;;;;;31.99;20.01;94433.44;10417270;28;20124;-91
2021/08/16 14:38:53;;;;;;;2.67;1.50;;;;;;;31.89;19.47;94428.84;10432616;28;20041;-93
2021/08/16 14:43:53;;;;;;;1.87;1.30;;;;;;;31.88;19.90;94426.47;10422514;28;20434;-92
2021/08/16 14:48:54;;;;;;;5.03;1.80;;;;;;;31.80;20.18;94420.22;10416483;28;20296;-93
2021/08/16 14:53:54;;;;;;;4.78;1.75;;;;;;;31.79;19.93;94418.63;10415792;28;20056;-92
2021/08/16 14:58:55;;;;;;;2.10;1.30;;;;;;;31.77;20.40;94415.50;10415328;28;20029;-91
2021/08/16 15:03:55;;;;;;;1.50;1.30;;;;;;;31.73;19.81;94421.09;10417354;28;20025;-91
2021/08/16 15:08:58;;;;;;;7.47;1.77;;;;;;;31.66;20.47;94412.88;10415520;28;20112;-93
2021/08/16 15:13:58;;;;;;;3.33;1.70;;;;;;;31.56;20.04;94405.44;10415593;28;20034;-93
2021/08/16 15:18:59;;;;;;;5.07;1.27;;;;;;;31.54;20.31;94403.09;10416270;28;20033;-93
2021/08/16 15:23:59;;;;;;;2.25;1.85;;;;;;;31.52;20.49;94405.47;10416593;28;20052;-93
2021/08/16 15:29:04;;;;;;;3.30;1.80;;;;;;;31.45;21.27;94405.59;10414488;28;20029;-94
2021/08/16 15:34:04;;;;;;;2.05;1.50;;;;;;;31.41;20.79;94413.97;10415283;28;20547;-92
2021/08/16 15:39:05;;;;;;;2.20;1.53;;;;;;;31.35;20.78;94410.84;10413185;28;20025;-87
2021/08/16 15:44:06;;;;;;;1.90;1.60;;;;;;;31.33;20.90;94404.16;10413205;28;20032;-87
2021/08/16 15:49:07;;;;;;;3.60;1.75;;;;;;;31.25;21.49;94402.66;10416642;28;20416;-93
2021/08/16 15:54:10;;;;;;;3.10;1.90;;;;;;;31.28;21.19;94399.06;10444787;28;20021;-93
2021/08/16 15:59:11;;;;;;;2.35;1.30;;;;;;;31.25;21.38;94402.66;10427272;28;20021;-92
2021/08/16 16:04:11;;;;;;;4.20;2.28;;;;;;;31.13;21.69;94390.91;10416824;28;20057;-89
2021/08/16 16:09:12;;;;;;;3.80;1.60;;;;;;;31.03;21.25;94397.38;10413289;28;20049;-89
2021/08/16 16:14:12;;;;;;;2.93;1.70;;;;;;;30.93;21.34;94403.81;10414217;28;20112;-89
2021/08/16 16:19:12;;;;;;;2.87;2.03;;;;;;;30.88;21.61;94396.69;10412656;28;20280;-88
2021/08/16 16:24:13;;;;;;;1.95;1.55;;;;;;;30.75;21.38;94398.44;10412307;28;20491;-88
2021/08/16 16:29:13;;;;;;;3.87;1.80;;;;;;;30.71;21.73;94398.47;10412440;28;20099;-88
2021/08/16 16:34:15;;;;;;;4.40;2.17;;;;;;;30.60;21.54;94395.81;10414029;28;20296;-88
2021/08/16 16:39:15;;;;;;;5.28;2.67;;;;;;;30.54;21.66;94402.22;10413330;28;20510;-88
2021/08/16 16:44:16;;;;;;;3.85;1.95;;;;;;;30.42;21.74;94397.91;10413208;28;20040;-88
2021/08/16 16:49:16;;;;;;;5.88;2.40;;;;;;;30.32;22.74;94408.72;10418103;28;20091;-88
2021/08/16 16:54:17;;;;;;;4.30;1.83;;;;;;;30.19;22.91;94406.84;10415370;28;20057;-88
2021/08/16 16:59:17;;;;;;;5.25;1.90;;;;;;;30.04;22.99;94411.72;10411641;28;20279;-88
2021/08/16 17:04:18;;;;;;;4.22;2.20;;;;;;;29.89;23.33;94409.03;10410836;28;20030;-87
2021/08/16 17:09:18;;;;;;;2.90;1.80;;;;;;;29.74;23.71;94400.00;10418167;28;20021;-88
2021/08/16 17:14:19;;;;;;;2.90;1.60;;;;;;;29.59;23.44;94399.28;10418549;28;20078;-88
2021/08/16 17:19:20;;;;;;;3.85;2.47;;;;;;;29.46;23.61;94404.50;10418207;28;20048;-91
2021/08/16 17:24:20;;;;;;;7.90;2.67;;;;;;;29.26;24.20;94408.94;10422219;28;20026;-93
2021/08/16 17:29:21;;;;;;;4.45;1.98;;;;;;;29.09;24.09;94407.81;10420557;28;20377;-93
2021/08/16 17:34:21;;;;;;;3.88;2.65;;;;;;;29.00;23.92;94411.00;10417502;28;20490;-88
2021/08/16 17:39:22;;;;;;;3.07;1.80;;;;;;;28.87;24.22;94404.31;10418150;28;20466;-88
2021/08/16 17:44:22;;;;;;;3.03;2.10;;;;;;;28.75;24.35;94414.63;10418070;28;20338;-89
2021/08/16 17:49:23;;;;;;;4.03;2.30;;;;;;;28.55;24.59;94424.50;10417694;28;20359;-87
2021/08/16 17:54:24;;;;;;;3.88;2.42;;;;;;;28.45;24.63;94423.31;10418510;28;20031;-88
2021/08/16 17:59:24;;;;;;;6.28;2.90;;;;;;;28.33;24.88;94429.25;10419685;28;20036;-87
2021/08/16 18:04:25;;;;;;;4.13;1.87;;;;;;;28.29;24.47;94429.28;10425082;28;20065;-94
2021/08/16 18:09:26;;;;;;;3.72;2.03;;;;;;;28.02;25.13;94440.72;10452074;28;20268;-94
2021/08/16 18:14:27;;;;;;;5.18;1.90;;;;;;;27.84;25.02;94437.09;10447338;28;20025;-95
2021/08/16 18:19:27;;;;;;;6.03;2.20;;;;;;;27.67;25.25;94442.19;10424271;28;20111;-95
2021/08/16 18:24:28;;;;;;;4.65;2.08;;;;;;;27.49;25.42;94453.19;10430851;28;20025;-95
2021/08/16 18:29:53;;;;;;;5.25;2.35;;;;;;;27.27;25.84;94457.81;10434724;28;20044;-95
2021/08/16 18:34:53;;;;;;;2.67;1.63;;;;;;;27.19;26.11;94475.50;10419301;28;20107;-95
2021/08/16 18:39:54;;;;;;;3.10;1.90;;;;;;;27.01;25.95;94481.69;10417756;28;20447;-91
2021/08/16 18:44:55;;;;;;;3.50;1.80;;;;;;;26.84;26.26;94483.19;10415470;28;20029;-91
2021/08/16 18:49:56;;;;;;;3.88;2.45;;;;;;;26.64;26.57;94492.84;10415547;28;20264;-91
2021/08/16 18:54:56;;;;;;;3.33;1.80;;;;;;;26.38;26.85;94500.91;10415113;28;20029;-91
2021/08/16 18:59:57;;;;;;;2.37;1.50;;;;;;;26.00;27.46;94502.91;10420086;28;20032;-90
2021/08/16 19:04:59;;;;;;;5.40;2.08;;;;;;;25.76;27.89;94496.75;10403638;28;20481;-90
2021/08/16 19:10:00;;;;;;;3.40;2.10;;;;;;;25.67;27.44;94510.03;10416231;28;20040;-94
2021/08/16 19:15:01;;;;;;;2.78;1.73;;;;;;;25.59;27.21;94505.59;10417007;28;20551;-94
2021/08/16 19:20:04;;;;;;;2.53;1.67;;;;;;;25.41;27.49;94505.38;10416578;28;20120;-94
2021/08/16 19:25:05;;;;;;;3.47;1.63;;;;;;;25.37;27.79;94516.38;10452819;28;20044;-93
2021/08/16 19:30:06;;;;;;;3.05;1.88;;;;;;;25.28;27.87;94510.31;10456445;28;20503;-95
2021/08/16 19:35:07;;;;;;;4.53;1.60;;;;;;;25.26;28.17;94515.41;10440364;28;20059;-95
2021/08/16 19:40:08;;;;;;;2.75;1.92;;;;;;;25.21;27.95;94512.97;10458161;28;20151;-95
2021/08/16 19:45:09;;;;;;;2.05;1.40;;;;;;;25.11;28.36;94513.63;10455713;28;20170;-94
2021/08/16 19:50:09;;;;;;;3.38;2.00;;;;;;;25.07;28.57;94511.59;10458404;28;20114;-95
2021/08/16 19:55:11;;;;;;;4.85;2.08;;;;;;;24.68;29.64;94522.81;10460445;28;20020;-93
2021/08/16 20:00:12;;;;;;;3.25;2.03;;;;;;;24.33;29.94;94523.03;10462494;28;20454;-94
2021/08/16 20:05:12;;;;;;;2.25;1.90;;;;;;;24.24;29.92;94526.03;10459459;28;20094;-94
2021/08/16 20:10:14;;;;;;;3.67;1.70;;;;;;;24.13;30.15;94531.31;10475663;28;20471;-94
2021/08/16 20:15:16;;;;;;;4.13;1.95;;;;;;;24.08;30.17;94528.88;10457415;28;20816;-94
2021/08/16 20:20:16;;;;;;;2.13;1.80;;;;;;;23.91;30.28;94529.34;10455156;28;20163;-95
2021/08/16 20:25:17;;;;;;;4.85;1.88;;;;;;;23.99;30.00;94526.38;10455116;28;20120;-93
2021/08/16 20:30:18;;;;;;;2.40;1.70;;;;;;;23.94;30.09;94529.41;10437240;28;20030;-93
2021/08/16 20:35:18;;;;;;;3.15;1.98;;;;;;;24.02;30.28;94538.56;10415179;28;20737;-94
2021/08/16 20:40:19;;;;;;;2.22;1.60;;;;;;;23.91;30.31;94540.31;10415049;28;20129;-94
2021/08/16 20:45:20;;;;;;;4.03;1.55;;;;;;;23.83;30.67;94539.34;10422041;28;20083;-95
2021/08/16 20:50:20;;;;;;;2.75;1.70;;;;;;;23.79;30.90;94539.31;10421596;28;20117;-94
2021/08/16 20:55:21;;;;;;;3.33;1.67;;;;;;;23.80;30.37;94542.81;10422167;28;20033;-93
2021/08/16 21:00:21;;;;;;;3.40;2.30;;;;;;;23.80;30.65;94551.84;10421456;28;20026;-94
2021/08/16 21:05:21;;;;;;;2.37;1.70;;;;;;;23.71;30.69;94554.81;10425353;28;20029;-93
2021/08/16 21:10:22;;;;;;;2.65;1.65;;;;;;;23.58;30.92;94558.84;10440089;28;20279;-95
2021/08/16 21:15:23;;;;;;;3.30;2.22;;;;;;;23.47;31.27;94555.09;10421592;28;20068;-95
2021/08/16 21:20:23;;;;;;;4.75;2.08;;;;;;;23.43;31.22;94554.22;10421047;28;20026;-93
2021/08/16 21:25:23;;;;;;;4.20;2.08;;;;;;;23.41;31.15;94559.28;10420563;28;20120;-94
2021/08/16 21:30:24;;;;;;;4.78;2.15;;;;;;;23.34;31.12;94563.47;10419944;28;20029;-95
2021/08/16 21:35:24;;;;;;;4.18;1.70;;;;;;;23.39;31.46;94565.16;10420838;28;20567;-94
2021/08/16 21:40:28;;;;;;;4.67;2.40;;;;;;;23.18;32.27;94560.00;10420815;28;20052;-95
2021/08/16 21:45:29;;;;;;;2.78;1.63;;;;;;;23.14;32.03;94556.38;10435849;28;20299;-94
2021/08/16 21:50:29;;;;;;;4.07;2.07;;;;;;;23.02;32.58;94560.81;10420668;28;20022;-94
2021/08/16 21:55:30;;;;;;;5.80;1.83;;;;;;;22.98;32.59;94562.66;10433423;28;20676;-93
2021/08/16 22:00:30;;;;;;;3.95;2.03;;;;;;;22.79;33.07;94554.38;10435182;28;20284;-95
2021/08/16 22:05:31;;;;;;;2.80;1.88;;;;;;;22.69;33.01;94553.00;10419910;28;20029;-95
2021/08/16 22:10:32;;;;;;;3.28;2.10;;;;;;;22.60;33.15;94555.88;10419251;28;20022;-95
2021/08/16 22:15:33;;;;;;;5.63;2.35;;;;;;;22.57;33.62;94553.09;10447313;28;20483;-95
2021/08/16 22:20:33;;;;;;;4.60;2.30;;;;;;;22.55;33.60;94550.69;10459468;28;20087;-94
2021/08/16 22:25:33;;;;;;;2.87;1.70;;;;;;;22.47;33.87;94546.19;10459403;28;20120;-94
2021/08/16 22:30:35;;;;;;;5.07;2.37;;;;;;;22.41;34.07;94548.41;10460488;28;20808;-94
2021/08/16 22:35:36;;;;;;;4.95;2.05;;;;;;;22.45;33.75;94545.75;10463679;28;20311;-94
2021/08/16 22:40:37;;;;;;;3.28;2.40;;;;;;;22.43;34.15;94537.09;10509244;28;20056;-93
2021/08/16 22:45:37;;;;;;;3.67;2.25;;;;;;;22.34;34.40;94538.06;10490269;28;20029;-95
2021/08/16 22:50:38;;;;;;;3.78;2.47;;;;;;;22.30;34.60;94534.41;10445883;28;20029;-94
2021/08/16 22:55:39;;;;;;;4.27;2.47;;;;;;;22.21;35.17;94530.25;10460339;28;20032;-94
2021/08/16 23:00:40;;;;;;;3.60;2.63;;;;;;;22.18;34.84;94524.34;10459965;28;20366;-95
2021/08/16 23:05:41;;;;;;;7.20;2.03;;;;;;;22.09;35.15;94531.13;10457681;28;20116;-96
2021/08/16 23:10:41;;;;;;;3.25;1.83;;;;;;;22.00;35.52;94532.09;10458612;28;20472;-94
2021/08/16 23:15:43;;;;;;;4.15;2.47;;;;;;;21.77;35.94;94520.13;10474934;28;20119;-95
2021/08/16 23:20:44;;;;;;;4.28;2.53;;;;;;;21.69;36.49;94519.16;10458215;28;20079;-94